Time;durP1;ratioP1;P1;durP2;ratioP2;P2;SDS_P1;SDS_P2;PMS_P1;PMS_P2;Temp;Humidity;BMP_temperature;BMP_pressure;BME280_temperature;BME280_humidity;BME280_pressure;Samples;Min_cycle;Max_cycle;Signal;HPM_P1;HPM_P2
2022/12/13 00:01:16;;;;;;;34.47;18.20;;;-1.10;99.90;;;;;;5054721;28;20171;-72
2022/12/13 00:03:42;;;;;;;40.03;21.38;;;-1.10;99.90;;;;;;5054675;28;20233;-72
2022/12/13 00:06:10;;;;;;;34.97;20.15;;;-1.10;99.90;;;;;;5054022;28;20536;-72
2022/12/13 00:08:36;;;;;;;34.95;19.55;;;-1.10;99.90;;;;;;5054853;28;20182;-71
2022/12/13 00:11:07;;;;;;;37.25;19.67;;;-1.10;99.90;;;;;;5054833;28;20179;-71
2022/12/13 00:13:33;;;;;;;33.58;17.40;;;-1.10;99.90;;;;;;5054346;28;20171;-73
2022/12/13 00:16:02;;;;;;;37.80;22.60;;;-1.20;99.90;;;;;;5052318;28;20296;-72
2022/12/13 00:18:29;;;;;;;44.50;20.15;;;-1.20;99.90;;;;;;5054577;28;20762;-72
2022/12/13 00:20:54;;;;;;;44.97;21.83;;;-1.20;99.90;;;;;;5053438;28;20178;-71
2022/12/13 00:23:21;;;;;;;31.30;19.50;;;-1.30;99.90;;;;;;5054427;28;20244;-72
2022/12/13 00:25:47;;;;;;;39.30;19.13;;;-1.30;99.90;;;;;;5052560;28;20187;-71
2022/12/13 00:28:14;;;;;;;38.78;19.35;;;-1.30;99.90;;;;;;5052692;28;20178;-72
2022/12/13 00:30:39;;;;;;;40.88;19.83;;;-1.40;99.90;;;;;;5054272;28;20167;-71
2022/12/13 00:33:05;;;;;;;34.83;18.60;;;-1.40;99.90;;;;;;5054373;28;20693;-72
2022/12/13 00:35:32;;;;;;;35.93;18.70;;;-1.50;99.90;;;;;;5053479;28;20736;-73
2022/12/13 00:37:58;;;;;;;36.67;17.52;;;-1.50;99.90;;;;;;5053997;28;20488;-72
2022/12/13 00:40:24;;;;;;;38.97;19.40;;;-1.50;99.90;;;;;;5054117;28;20262;-72
2022/12/13 00:42:49;;;;;;;34.57;19.43;;;-1.50;99.90;;;;;;5052733;28;20409;-72
2022/12/13 00:45:15;;;;;;;34.97;17.67;;;-1.50;99.90;;;;;;5052200;28;20205;-71
2022/12/13 00:47:41;;;;;;;40.97;20.13;;;-1.50;99.90;;;;;;5053918;28;20155;-73
2022/12/13 00:50:07;;;;;;;39.23;20.00;;;-1.50;99.90;;;;;;5053861;28;20654;-72
2022/12/13 00:52:33;;;;;;;40.22;20.75;;;-1.60;99.90;;;;;;5053956;28;20174;-71
2022/12/13 00:54:59;;;;;;;43.70;19.35;;;-1.60;99.90;;;;;;5053171;28;20187;-71
2022/12/13 00:57:26;;;;;;;32.63;19.07;;;-1.70;99.90;;;;;;5053719;28;20178;-74
2022/12/13 00:59:52;;;;;;;35.47;20.52;;;-1.70;99.80;;;;;;5053540;28;20178;-71
2022/12/13 01:02:17;;;;;;;40.60;19.73;;;-1.70;99.90;;;;;;5053666;28;20175;-71
2022/12/13 01:04:43;;;;;;;41.50;19.27;;;-1.70;99.70;;;;;;5052835;28;20539;-71
2022/12/13 01:07:09;;;;;;;38.80;21.00;;;-1.80;99.30;;;;;;5053933;28;20209;-71
2022/12/13 01:09:34;;;;;;;32.90;18.67;;;-1.70;98.00;;;;;;5052715;28;20522;-72
2022/12/13 01:12:03;;;;;;;35.93;19.80;;;-1.80;99.10;;;;;;5053634;28;20166;-72
2022/12/13 01:14:29;;;;;;;35.47;18.73;;;-1.80;97.40;;;;;;5052737;28;20187;-72
2022/12/13 01:16:55;;;;;;;31.80;17.83;;;-1.90;96.60;;;;;;5053444;28;20520;-72
2022/12/13 01:19:27;;;;;;;40.50;21.20;;;-1.90;97.60;;;;;;5053475;28;20727;-72
2022/12/13 01:22:05;;;;;;;31.92;18.65;;;-1.90;97.50;;;;;;5053469;28;20167;-71
2022/12/13 01:24:31;;;;;;;36.55;18.75;;;-1.90;95.70;;;;;;5052583;28;20205;-72
2022/12/13 01:26:58;;;;;;;34.60;18.90;;;-2.00;96.00;;;;;;5053416;28;20167;-71
2022/12/13 01:29:25;;;;;;;42.72;21.35;;;-2.10;94.50;;;;;;5053284;28;20166;-71
2022/12/13 01:31:51;;;;;;;34.25;19.75;;;-2.10;86.30;;;;;;5053227;28;20174;-73
2022/12/13 01:34:19;;;;;;;42.40;18.73;;;-2.10;95.10;;;;;;5051724;28;20249;-75
2022/12/13 01:36:47;;;;;;;36.22;19.00;;;-2.10;93.40;;;;;;5053317;28;20175;-72
2022/12/13 01:39:14;;;;;;;44.80;19.65;;;-2.20;86.90;;;;;;5053216;28;20232;-72
2022/12/13 01:41:40;;;;;;;40.13;17.52;;;-2.20;88.70;;;;;;5053191;28;20246;-71
2022/12/13 01:44:44;;;;;;;33.45;16.48;;;-2.20;95.80;;;;;;5052779;28;20249;-76
2022/12/13 01:47:11;;;;;;;37.45;18.10;;;-2.10;98.00;;;;;;5052942;28;20258;-71
2022/12/13 01:49:37;;;;;;;37.83;18.77;;;-2.20;98.00;;;;;;5053177;28;20163;-71
2022/12/13 01:52:07;;;;;;;28.05;16.85;;;-2.20;98.10;;;;;;5053048;28;20171;-72
2022/12/13 01:54:39;;;;;;;36.90;19.60;;;-2.10;99.90;;;;;;5051251;28;20547;-73
2022/12/13 01:57:08;;;;;;;36.75;19.10;;;-2.10;99.90;;;;;;5051700;28;20179;-71
2022/12/13 01:59:39;;;;;;;28.23;17.55;;;-2.10;99.00;;;;;;5052998;28;20216;-71
2022/12/13 02:02:07;;;;;;;35.50;18.55;;;-2.20;96.80;;;;;;5051909;28;20171;-71
2022/12/13 02:04:57;;;;;;;42.90;18.70;;;-2.20;98.10;;;;;;5052027;28;20207;-72
2022/12/13 02:07:28;;;;;;;28.40;16.42;;;-2.30;94.60;;;;;;5053030;28;20182;-71
2022/12/13 02:09:57;;;;;;;43.47;20.02;;;-2.30;89.20;;;;;;5052006;28;20235;-71
2022/12/13 02:12:26;;;;;;;37.28;18.02;;;-2.30;93.30;;;;;;5052958;28;20163;-73
2022/12/13 02:14:52;;;;;;;37.88;19.90;;;-2.40;92.80;;;;;;5052145;28;20187;-72
2022/12/13 02:17:39;;;;;;;36.90;20.05;;;-2.40;94.90;;;;;;5053124;28;20678;-72
2022/12/13 02:20:11;;;;;;;33.78;19.55;;;-2.40;90.00;;;;;;5052970;28;20171;-72
2022/12/13 02:22:45;;;;;;;32.03;18.90;;;-2.50;92.30;;;;;;5052650;28;20296;-72
2022/12/13 02:25:14;;;;;;;39.30;19.58;;;-2.50;87.10;;;;;;5050602;28;20206;-73
2022/12/13 02:28:15;;;;;;;33.90;19.38;;;-2.60;86.70;;;;;;5052867;28;20183;-71
2022/12/13 02:30:54;;;;;;;46.13;21.40;;;-2.60;86.10;;;;;;5052688;28;20246;-73
2022/12/13 02:33:43;;;;;;;33.35;19.30;;;-2.60;92.60;;;;;;5052846;28;20175;-71
2022/12/13 02:36:28;;;;;;;31.27;16.75;;;-2.60;89.30;;;;;;5052091;28;20167;-71
2022/12/13 02:39:18;;;;;;;36.13;19.27;;;-2.60;87.90;;;;;;5055575;28;20170;-72
2022/12/13 02:42:02;;;;;;;39.20;17.77;;;-2.60;89.40;;;;;;5056382;28;20609;-71
2022/12/13 02:44:44;;;;;;;23.35;15.65;;;-2.60;89.40;;;;;;5055414;28;20711;-71
2022/12/13 02:47:20;;;;;;;27.33;15.50;;;-2.50;93.90;;;;;;5056365;28;20258;-71
2022/12/13 02:49:50;;;;;;;35.53;19.58;;;-2.50;96.10;;;;;;5055124;28;20178;-71
2022/12/13 02:52:19;;;;;;;33.15;18.45;;;-2.40;95.70;;;;;;5056086;28;20679;-73
2022/12/13 02:54:46;;;;;;;29.63;17.55;;;-2.30;97.50;;;;;;5055496;28;20199;-73
2022/12/13 02:57:38;;;;;;;35.53;19.75;;;-2.30;97.30;;;;;;5056069;28;20248;-72
2022/12/13 03:00:09;;;;;;;35.40;18.08;;;-2.30;97.80;;;;;;5056100;28;20301;-71
2022/12/13 03:02:47;;;;;;;35.78;17.75;;;-2.30;97.20;;;;;;5055981;28;20749;-73
2022/12/13 03:08:50;;;;;;;36.40;18.65;;;-2.20;98.90;;;;;;5056266;28;20634;-72
2022/12/13 03:11:18;;;;;;;28.48;15.95;;;-2.20;97.80;;;;;;5054803;28;20185;-72
2022/12/13 03:14:11;;;;;;;32.33;17.15;;;-2.20;96.90;;;;;;5054411;28;20199;-71
2022/12/13 03:16:42;;;;;;;41.10;17.33;;;-2.30;86.10;;;;;;5051542;28;20543;-72
2022/12/13 03:19:11;;;;;;;34.03;16.55;;;-2.30;93.10;;;;;;5054520;28;20179;-71
2022/12/13 03:21:45;;;;;;;34.00;18.88;;;-2.30;94.60;;;;;;5055677;28;20163;-71
2022/12/13 03:24:11;;;;;;;36.33;18.95;;;-2.30;93.90;;;;;;5053968;28;20198;-73
2022/12/13 03:26:39;;;;;;;30.40;17.17;;;-2.30;93.70;;;;;;5055009;28;20524;-72
2022/12/13 03:29:06;;;;;;;39.40;18.70;;;-2.30;94.90;;;;;;5055422;28;20447;-72
2022/12/13 03:31:32;;;;;;;35.00;18.60;;;-2.20;95.80;;;;;;5055479;28;20213;-73
2022/12/13 03:33:58;;;;;;;32.93;18.07;;;-2.20;94.60;;;;;;5055326;28;20651;-72
2022/12/13 03:36:24;;;;;;;29.33;16.63;;;-2.30;93.80;;;;;;5054633;28;20398;-73
2022/12/13 03:38:52;;;;;;;37.67;17.23;;;-2.40;91.50;;;;;;5054305;28;20178;-72
2022/12/13 03:41:23;;;;;;;31.05;17.92;;;-2.50;92.10;;;;;;5055156;28;20182;-71
2022/12/13 03:43:49;;;;;;;33.40;17.33;;;-2.40;93.30;;;;;;5055134;28;20282;-72
2022/12/13 03:46:15;;;;;;;40.22;19.35;;;-2.30;90.80;;;;;;5053429;28;20244;-71
2022/12/13 03:48:41;;;;;;;36.07;17.37;;;-2.30;93.80;;;;;;5054376;28;20623;-71
2022/12/13 03:51:07;;;;;;;32.57;17.73;;;-2.40;90.20;;;;;;5053533;28;20220;-73
2022/12/13 03:53:33;;;;;;;39.00;18.60;;;-2.40;89.50;;;;;;5054872;28;20167;-72
2022/12/13 03:56:00;;;;;;;31.45;17.85;;;-2.30;92.20;;;;;;5054197;28;20409;-71
2022/12/13 03:58:25;;;;;;;31.73;17.67;;;-2.30;93.60;;;;;;5053818;28;20175;-72
2022/12/13 04:00:51;;;;;;;38.17;19.40;;;-2.20;95.00;;;;;;5054882;28;20178;-71
2022/12/13 04:03:17;;;;;;;41.27;19.80;;;-2.10;95.70;;;;;;5054576;28;20194;-72
2022/12/13 04:05:43;;;;;;;42.13;19.23;;;-2.10;95.30;;;;;;5053918;28;20262;-72
2022/12/13 04:08:08;;;;;;;35.90;19.70;;;-2.00;95.60;;;;;;5054957;28;20167;-71
2022/12/13 04:10:34;;;;;;;38.37;17.20;;;-2.00;96.60;;;;;;5054773;28;20174;-71
2022/12/13 04:15:47;;;;;;;43.08;20.92;;;-2.00;96.90;;;;;;5053705;28;20837;-72
2022/12/13 04:18:18;;;;;;;38.85;20.85;;;-2.10;94.90;;;;;;5054746;28;20174;-71
2022/12/13 04:20:44;;;;;;;30.45;17.08;;;-2.20;90.70;;;;;;5054523;28;20171;-72
2022/12/13 04:23:10;;;;;;;30.77;18.80;;;-2.10;95.20;;;;;;5053374;28;20616;-71
2022/12/13 04:25:36;;;;;;;39.72;19.95;;;-2.10;96.10;;;;;;5053578;28;20252;-72
2022/12/13 04:28:02;;;;;;;50.28;18.98;;;-2.10;96.50;;;;;;5054479;28;20170;-71
2022/12/13 04:30:27;;;;;;;36.00;18.73;;;-2.10;98.10;;;;;;5054337;28;20628;-71
2022/12/13 04:32:53;;;;;;;41.70;20.93;;;-2.20;93.60;;;;;;5054367;28;20497;-72
2022/12/13 04:35:19;;;;;;;36.80;16.40;;;-2.50;86.50;;;;;;5053506;28;20186;-72
2022/12/13 04:37:44;;;;;;;27.70;16.07;;;-2.50;92.20;;;;;;5053121;28;20217;-71
2022/12/13 04:40:10;;;;;;;34.23;19.30;;;-2.40;94.40;;;;;;5054228;28;20233;-72
2022/12/13 04:42:36;;;;;;;30.73;17.50;;;-2.40;94.30;;;;;;5054085;28;20217;-72
2022/12/13 04:45:02;;;;;;;34.47;19.20;;;-2.30;96.30;;;;;;5051980;28;20457;-71
2022/12/13 04:47:28;;;;;;;31.52;18.27;;;-2.20;98.50;;;;;;5053964;28;20186;-71
2022/12/13 04:49:54;;;;;;;38.13;17.93;;;-2.10;99.90;;;;;;5053945;28;20643;-71
2022/12/13 04:52:20;;;;;;;37.97;21.00;;;-2.00;99.90;;;;;;5053985;28;20221;-72
2022/12/13 04:54:45;;;;;;;30.37;17.87;;;-2.00;99.90;;;;;;5053168;28;20194;-71
2022/12/13 04:57:11;;;;;;;37.60;21.10;;;-1.90;99.90;;;;;;5053823;28;20401;-71
2022/12/13 04:59:38;;;;;;;38.40;20.50;;;-1.90;99.90;;;;;;5053658;28;20416;-72
2022/12/13 05:02:05;;;;;;;35.55;19.23;;;-1.80;99.90;;;;;;5053460;28;20175;-71
2022/12/13 05:04:31;;;;;;;37.97;18.77;;;-1.80;99.90;;;;;;5053173;28;20356;-72
2022/12/13 05:06:56;;;;;;;41.23;20.70;;;-1.70;99.50;;;;;;5052337;28;20286;-72
2022/12/13 05:09:23;;;;;;;34.23;17.67;;;-1.70;99.90;;;;;;5053703;28;20220;-71
2022/12/13 05:11:49;;;;;;;38.75;20.92;;;-1.60;99.90;;;;;;5053457;28;20531;-72
2022/12/13 05:14:15;;;;;;;34.47;17.80;;;-1.50;99.90;;;;;;5052303;28;20207;-71
2022/12/13 05:16:40;;;;;;;34.80;18.73;;;-1.50;99.90;;;;;;5052126;28;20523;-71
2022/12/13 05:19:06;;;;;;;33.20;16.80;;;-1.50;99.90;;;;;;5052432;28;20409;-72
2022/12/13 05:21:33;;;;;;;40.63;19.60;;;-1.50;99.90;;;;;;5052525;28;20178;-71
2022/12/13 05:24:02;;;;;;;36.83;21.08;;;-1.40;99.90;;;;;;5053333;28;20460;-72
2022/12/13 05:26:28;;;;;;;30.52;19.55;;;-1.50;99.90;;;;;;5052962;28;20174;-70
2022/12/13 05:28:57;;;;;;;30.97;18.90;;;-1.50;99.90;;;;;;5052310;28;20175;-71
2022/12/13 05:31:24;;;;;;;36.53;19.65;;;-1.50;99.30;;;;;;5053448;28;20208;-72
2022/12/13 05:33:50;;;;;;;33.55;17.52;;;-1.50;99.90;;;;;;5053352;28;20190;-71
2022/12/13 05:36:16;;;;;;;30.83;17.50;;;-1.40;99.90;;;;;;5051468;28;20179;-72
2022/12/13 05:38:42;;;;;;;30.80;19.07;;;-1.40;99.90;;;;;;5053390;28;20258;-72
2022/12/13 05:41:13;;;;;;;33.10;18.10;;;-1.50;99.90;;;;;;5053244;28;20405;-72
2022/12/13 05:43:39;;;;;;;30.35;17.90;;;-1.50;95.70;;;;;;5053073;28;20194;-71
2022/12/13 05:46:05;;;;;;;39.13;18.50;;;-1.60;94.20;;;;;;5051110;28;20232;-71
2022/12/13 05:48:30;;;;;;;35.30;19.33;;;-1.50;96.00;;;;;;5053205;28;20163;-72
2022/12/13 05:50:56;;;;;;;42.60;19.70;;;-1.50;96.70;;;;;;5052183;28;20163;-70
2022/12/13 05:53:22;;;;;;;38.57;19.17;;;-1.40;98.60;;;;;;5052100;28;20175;-72
2022/12/13 05:55:47;;;;;;;29.27;17.70;;;-1.30;99.90;;;;;;5052400;28;20187;-71
2022/12/13 05:58:15;;;;;;;30.87;17.87;;;-1.30;99.90;;;;;;5052976;28;20167;-72
2022/12/13 06:00:41;;;;;;;38.00;21.30;;;-1.30;99.90;;;;;;5053018;28;20167;-72
2022/12/13 06:03:07;;;;;;;34.17;19.08;;;-1.30;99.90;;;;;;5053016;28;20171;-72
2022/12/13 06:05:33;;;;;;;34.53;20.50;;;-1.30;99.90;;;;;;5052232;28;20209;-71
2022/12/13 06:07:59;;;;;;;46.70;21.87;;;-1.30;99.90;;;;;;5053087;28;20168;-71
2022/12/13 06:10:26;;;;;;;48.25;21.95;;;-1.40;99.90;;;;;;5052762;28;20634;-71
2022/12/13 06:12:51;;;;;;;34.42;19.45;;;-1.40;99.90;;;;;;5053013;28;20167;-71
2022/12/13 06:15:17;;;;;;;35.30;19.67;;;-1.30;99.90;;;;;;5056355;28;20221;-71
2022/12/13 06:17:43;;;;;;;34.70;17.80;;;-1.30;99.90;;;;;;5056843;28;20519;-71
2022/12/13 06:20:09;;;;;;;39.80;19.53;;;-1.30;99.90;;;;;;5056656;28;20201;-71
2022/12/13 06:22:35;;;;;;;41.78;20.50;;;-1.30;99.90;;;;;;5056446;28;20575;-71
2022/12/13 06:25:01;;;;;;;47.00;22.33;;;-1.30;98.50;;;;;;5054645;28;20298;-71
2022/12/13 06:27:27;;;;;;;36.80;19.77;;;-1.20;96.70;;;;;;5056592;28;20216;-71
2022/12/13 06:29:52;;;;;;;29.33;19.37;;;-1.20;99.90;;;;;;5055638;28;20179;-71
2022/12/13 06:32:18;;;;;;;35.37;18.23;;;-1.10;99.90;;;;;;5056544;28;20404;-73
2022/12/13 06:34:44;;;;;;;39.60;22.37;;;-1.10;99.90;;;;;;5055752;28;20248;-72
2022/12/13 06:37:12;;;;;;;43.90;20.77;;;-1.10;99.90;;;;;;5055495;28;20544;-71
2022/12/13 06:39:38;;;;;;;43.38;21.73;;;-1.10;99.90;;;;;;5056456;28;20163;-71
2022/12/13 06:42:06;;;;;;;38.20;20.17;;;-1.10;99.90;;;;;;5056379;28;20516;-71
2022/12/13 06:44:32;;;;;;;51.88;22.33;;;-1.10;99.90;;;;;;5054228;28;20213;-72
2022/12/13 06:46:59;;;;;;;42.58;19.23;;;-1.10;99.90;;;;;;5056417;28;20178;-71
2022/12/13 06:49:25;;;;;;;34.50;21.48;;;-1.10;99.90;;;;;;5056341;28;20171;-71
2022/12/13 06:51:51;;;;;;;45.30;19.90;;;-1.10;99.70;;;;;;5056186;28;20647;-72
2022/12/13 06:54:16;;;;;;;33.93;16.77;;;-1.10;99.30;;;;;;5055876;28;20225;-75
2022/12/13 06:56:42;;;;;;;45.57;18.20;;;-1.10;99.90;;;;;;5055959;28;20166;-73
2022/12/13 06:59:08;;;;;;;43.10;19.53;;;-1.10;99.80;;;;;;5055984;28;20570;-72
2022/12/13 07:01:33;;;;;;;34.00;18.80;;;-1.00;99.00;;;;;;5054915;28;20253;-72
2022/12/13 07:03:59;;;;;;;47.13;20.70;;;-1.10;97.50;;;;;;5054470;28;20261;-71
2022/12/13 07:06:25;;;;;;;34.03;18.17;;;-1.10;87.80;;;;;;5053825;28;20187;-72
2022/12/13 07:08:54;;;;;;;35.95;19.25;;;-1.10;87.00;;;;;;5055735;28;20159;-71
2022/12/13 07:11:23;;;;;;;42.13;17.58;;;-1.20;94.30;;;;;;5055940;28;20193;-72
2022/12/13 07:13:49;;;;;;;31.38;17.88;;;-1.20;96.40;;;;;;5055785;28;20600;-72
2022/12/13 07:16:15;;;;;;;28.13;16.38;;;-1.20;96.30;;;;;;5053797;28;20210;-72
2022/12/13 07:18:40;;;;;;;33.20;18.20;;;-1.20;93.50;;;;;;5055651;28;20201;-72
2022/12/13 07:21:09;;;;;;;31.17;17.47;;;-1.20;92.80;;;;;;5055685;28;20167;-72
2022/12/13 07:23:35;;;;;;;28.40;18.92;;;-1.20;89.70;;;;;;5054085;28;20275;-72
2022/12/13 07:26:01;;;;;;;43.42;17.67;;;-1.20;86.90;;;;;;5053903;28;20179;-71
2022/12/13 07:28:27;;;;;;;39.23;18.07;;;-1.20;90.30;;;;;;5054596;28;20532;-72
2022/12/13 07:30:53;;;;;;;32.33;17.70;;;-1.30;86.80;;;;;;5055499;28;20432;-71
2022/12/13 07:33:18;;;;;;;28.60;17.37;;;-1.30;86.80;;;;;;5054230;28;20167;-71
2022/12/13 07:35:44;;;;;;;26.00;16.20;;;-1.40;86.80;;;;;;5054581;28;20425;-72
2022/12/13 07:38:11;;;;;;;34.23;16.87;;;-1.40;86.80;;;;;;5055445;28;20190;-71
2022/12/13 07:40:38;;;;;;;25.10;15.25;;;-1.40;86.70;;;;;;5055334;28;20204;-70
2022/12/13 07:43:04;;;;;;;25.42;15.73;;;-1.40;86.60;;;;;;5055170;28;20163;-72
2022/12/13 07:45:30;;;;;;;26.85;14.88;;;-1.60;81.20;;;;;;5054451;28;20205;-71
2022/12/13 07:47:56;;;;;;;34.15;15.50;;;-1.60;80.40;;;;;;5055081;28;20194;-71
2022/12/13 07:50:22;;;;;;;28.37;15.60;;;-1.50;86.60;;;;;;5054082;28;20198;-71
2022/12/13 07:52:49;;;;;;;22.75;15.63;;;-1.60;86.60;;;;;;5055027;28;20163;-71
2022/12/13 07:55:16;;;;;;;28.63;16.10;;;-1.70;78.20;;;;;;5054169;28;20244;-72
2022/12/13 07:57:43;;;;;;;25.27;12.98;;;-1.60;79.60;;;;;;5055084;28;20528;-72
2022/12/13 08:00:09;;;;;;;26.63;15.35;;;-1.60;76.50;;;;;;5054942;28;20186;-72
2022/12/13 08:02:35;;;;;;;19.60;13.65;;;-1.60;86.50;;;;;;5054819;28;20198;-70
2022/12/13 08:05:01;;;;;;;31.50;15.27;;;-1.60;86.60;;;;;;5053864;28;20238;-72
2022/12/13 08:07:26;;;;;;;33.67;15.60;;;-1.70;76.50;;;;;;5054672;28;20909;-72
2022/12/13 08:09:54;;;;;;;29.00;15.03;;;-1.70;68.80;;;;;;5054731;28;20171;-70
2022/12/13 08:12:21;;;;;;;26.67;15.50;;;-1.70;79.50;;;;;;5055118;28;20202;-71
2022/12/13 08:14:46;;;;;;;25.87;15.67;;;-1.80;77.00;;;;;;5053935;28;20187;-70
2022/12/13 08:17:12;;;;;;;23.73;14.97;;;-1.80;78.20;;;;;;5054529;28;20678;-72
2022/12/13 08:19:38;;;;;;;37.50;19.00;;;-1.90;72.70;;;;;;5054541;28;20574;-70
2022/12/13 08:22:03;;;;;;;32.47;16.23;;;-1.90;74.40;;;;;;5053194;28;20709;-71
2022/12/13 08:24:30;;;;;;;33.13;15.80;;;-1.90;61.40;;;;;;5053791;28;20222;-70
2022/12/13 08:27:01;;;;;;;30.70;14.00;;;-1.90;64.40;;;;;;5053496;28;20171;-70
2022/12/13 08:29:27;;;;;;;33.42;16.42;;;-1.90;65.40;;;;;;5053019;28;20501;-71
2022/12/13 08:31:53;;;;;;;29.95;16.08;;;-1.90;64.20;;;;;;5054235;28;20170;-72
2022/12/13 08:34:18;;;;;;;23.93;16.30;;;-2.00;60.40;;;;;;5053621;28;20190;-72
2022/12/13 08:36:44;;;;;;;24.70;14.33;;;-2.00;63.30;;;;;;5053855;28;20202;-70
2022/12/13 08:39:10;;;;;;;37.70;18.17;;;-1.90;64.20;;;;;;5054285;28;20550;-70
2022/12/13 08:41:35;;;;;;;29.17;15.80;;;-1.90;60.40;;;;;;5054096;28;20171;-71
2022/12/13 08:44:01;;;;;;;37.87;18.90;;;-1.90;78.50;;;;;;5053980;28;20282;-71
2022/12/13 08:46:27;;;;;;;31.30;18.23;;;-1.90;78.00;;;;;;5053480;28;20195;-72
2022/12/13 08:48:53;;;;;;;24.60;14.60;;;-1.80;78.20;;;;;;5054213;28;20620;-71
2022/12/13 08:51:22;;;;;;;34.78;17.60;;;-1.80;80.60;;;;;;5054068;28;20403;-72
2022/12/13 08:53:49;;;;;;;32.63;17.55;;;-1.70;83.10;;;;;;5053782;28;20183;-72
2022/12/13 08:56:17;;;;;;;33.83;20.42;;;-1.70;84.90;;;;;;5053216;28;20171;-70
2022/12/13 08:58:43;;;;;;;35.63;18.90;;;-1.70;77.50;;;;;;5053864;28;20170;-70
2022/12/13 09:01:09;;;;;;;30.70;18.88;;;-1.70;76.30;;;;;;5053656;28;20175;-71
2022/12/13 09:03:36;;;;;;;35.13;16.80;;;-1.70;77.10;;;;;;5053493;28;20608;-70
2022/12/13 09:06:10;;;;;;;31.92;19.15;;;-1.70;76.60;;;;;;5051850;28;20437;-72
2022/12/13 09:08:36;;;;;;;34.35;18.80;;;-1.70;78.50;;;;;;5053577;28;20173;-71
2022/12/13 09:11:03;;;;;;;39.17;19.60;;;-1.70;75.70;;;;;;5052562;28;20217;-70
2022/12/13 09:13:31;;;;;;;31.08;18.38;;;-1.70;79.50;;;;;;5053451;28;20193;-73
2022/12/13 09:15:58;;;;;;;34.22;17.25;;;-1.60;80.60;;;;;;5052730;28;20209;-72
2022/12/13 09:18:24;;;;;;;36.70;19.73;;;-1.60;70.00;;;;;;5053488;28;20171;-70
2022/12/13 09:20:50;;;;;;;34.92;19.05;;;-1.60;75.70;;;;;;5052227;28;20204;-71
2022/12/13 09:23:16;;;;;;;20.07;15.53;;;-1.60;70.00;;;;;;5053371;28;20658;-71
2022/12/13 09:25:42;;;;;;;35.73;18.03;;;-1.50;86.50;;;;;;5052699;28;20925;-71
2022/12/13 09:28:08;;;;;;;25.30;16.83;;;-1.40;86.50;;;;;;5053413;28;20431;-71
2022/12/13 09:30:37;;;;;;;36.47;18.20;;;-1.40;86.70;;;;;;5053867;28;20173;-71
2022/12/13 09:33:03;;;;;;;31.73;19.85;;;-1.30;86.80;;;;;;5052302;28;20603;-70
2022/12/13 09:35:29;;;;;;;41.05;18.40;;;-1.20;75.00;;;;;;5052674;28;20240;-71
2022/12/13 09:37:55;;;;;;;45.13;19.43;;;-1.00;87.00;;;;;;5053221;28;20171;-70
2022/12/13 09:40:25;;;;;;;29.57;18.97;;;-0.90;87.00;;;;;;5053273;28;20433;-70
2022/12/13 09:42:53;;;;;;;33.95;18.65;;;-0.80;87.20;;;;;;5053293;28;20412;-70
2022/12/13 09:45:19;;;;;;;37.55;19.05;;;-0.70;87.20;;;;;;5052526;28;20667;-71
2022/12/13 09:47:47;;;;;;;35.30;18.97;;;-0.70;87.20;;;;;;5054500;28;20171;-71
2022/12/13 09:50:29;;;;;;;33.97;18.13;;;-0.60;87.30;;;;;;5057294;28;20170;-71
2022/12/13 09:52:56;;;;;;;30.00;19.73;;;-0.50;87.30;;;;;;5057271;28;20585;-71
2022/12/13 09:55:31;;;;;;;30.70;17.40;;;-0.50;87.20;;;;;;5056270;28;20221;-71
2022/12/13 09:58:04;;;;;;;22.92;15.52;;;-0.50;77.70;;;;;;5057133;28;20669;-71
2022/12/13 10:00:34;;;;;;;33.67;19.45;;;-0.40;75.00;;;;;;5057044;28;20250;-71
2022/12/13 10:03:00;;;;;;;34.30;19.35;;;-0.40;65.40;;;;;;5057092;28;20523;-71
2022/12/13 10:05:34;;;;;;;32.50;17.90;;;-0.30;57.50;;;;;;5056198;28;20259;-71
2022/12/13 10:08:15;;;;;;;32.88;18.30;;;-0.30;52.50;;;;;;5056958;28;20408;-72
2022/12/13 10:10:42;;;;;;;33.17;18.63;;;-0.30;51.80;;;;;;5056919;28;20193;-71
2022/12/13 10:14:01;;;;;;;34.40;18.83;;;-0.30;65.80;;;;;;5057182;28;20200;-70
2022/12/13 10:16:40;;;;;;;37.33;17.80;;;-0.20;65.70;;;;;;5014363;28;20172;-71
2022/12/13 10:19:38;;;;;;;33.45;17.67;;;-0.20;63.70;;;;;;5056772;28;20216;-71
2022/12/13 10:22:09;;;;;;;31.75;16.65;;;-0.10;59.20;;;;;;5056736;28;20163;-71
2022/12/13 10:24:49;;;;;;;32.40;17.75;;;-0.10;56.50;;;;;;5055659;28;20214;-71
2022/12/13 10:27:18;;;;;;;31.92;18.30;;;0.00;57.10;;;;;;5056917;28;20167;-71
2022/12/13 10:30:19;;;;;;;35.03;16.45;;;0.00;51.20;;;;;;5056715;28;20221;-71
2022/12/13 10:32:50;;;;;;;24.10;15.52;;;0.10;51.00;;;;;;5056630;28;20171;-72
2022/12/13 10:35:35;;;;;;;28.00;17.42;;;0.00;43.00;;;;;;5054712;28;20198;-71
2022/12/13 10:38:22;;;;;;;38.75;18.55;;;0.10;32.50;;;;;;5056654;28;20177;-70
2022/12/13 10:40:48;;;;;;;27.65;17.85;;;0.20;36.40;;;;;;5054969;28;20197;-72
2022/12/13 10:43:16;;;;;;;27.60;15.43;;;0.30;42.60;;;;;;5056363;28;20171;-72
2022/12/13 10:45:56;;;;;;;26.90;17.17;;;0.30;41.60;;;;;;5055737;28;20197;-72
2022/12/13 10:48:38;;;;;;;26.10;17.25;;;0.50;42.90;;;;;;5056380;28;20190;-73
2022/12/13 10:51:04;;;;;;;30.52;17.80;;;0.60;39.30;;;;;;5056232;28;20250;-72
2022/12/13 10:53:36;;;;;;;34.10;17.00;;;0.60;32.50;;;;;;5056218;28;20635;-73
2022/12/13 10:56:03;;;;;;;32.45;18.17;;;0.50;24.70;;;;;;5054431;28;20404;-72
2022/12/13 10:58:42;;;;;;;33.40;19.88;;;0.50;21.90;;;;;;5055591;28;20214;-72
2022/12/13 11:01:22;;;;;;;38.47;17.85;;;0.40;20.40;;;;;;5056157;28;20166;-72
2022/12/13 11:04:18;;;;;;;26.67;17.55;;;0.50;11.60;;;;;;5056007;28;20205;-72
2022/12/13 11:06:46;;;;;;;27.67;15.52;;;0.50;18.40;;;;;;5054729;28;20313;-72
2022/12/13 11:09:23;;;;;;;22.95;14.80;;;0.50;16.30;;;;;;5055827;28;20155;-72
2022/12/13 11:11:54;;;;;;;23.10;14.50;;;0.40;14.90;;;;;;5055873;28;20171;-71
2022/12/13 11:14:23;;;;;;;25.80;15.60;;;0.40;14.70;;;;;;5055044;28;20197;-71
2022/12/13 11:16:53;;;;;;;26.10;15.10;;;0.40;12.00;;;;;;5055654;28;20238;-72
2022/12/13 11:19:20;;;;;;;28.42;15.93;;;0.40;10.00;;;;;;5055838;28;20170;-72
2022/12/13 11:21:48;;;;;;;29.70;16.77;;;0.40;11.20;;;;;;5055625;28;20171;-72
2022/12/13 11:24:35;;;;;;;31.65;16.02;;;0.40;10.00;;;;;;5055192;28;20694;-71
2022/12/13 11:27:10;;;;;;;30.33;15.88;;;0.50;13.40;;;;;;5055376;28;20174;-71
2022/12/13 11:30:00;;;;;;;30.10;18.15;;;0.40;10.20;;;;;;5054258;28;20527;-71
2022/12/13 11:32:26;;;;;;;29.13;15.45;;;0.40;10.50;;;;;;5055574;28;20159;-71
2022/12/13 11:35:08;;;;;;;29.60;15.07;;;0.40;9.60;;;;;;5053696;28;20202;-72
2022/12/13 11:37:52;;;;;;;23.80;13.27;;;0.40;9.20;;;;;;5055525;28;20178;-72
2022/12/13 11:40:36;;;;;;;23.15;15.20;;;0.50;8.00;;;;;;5055445;28;20639;-71
2022/12/13 11:43:27;;;;;;;24.45;15.77;;;0.40;6.10;;;;;;5055135;28;20179;-71
2022/12/13 11:45:56;;;;;;;29.02;16.20;;;0.40;4.40;;;;;;5054431;28;20578;-72
2022/12/13 11:48:35;;;;;;;21.23;13.27;;;0.20;1.00;;;;;;5055253;28;20250;-71
2022/12/13 11:51:06;;;;;;;22.33;14.55;;;0.20;2.40;;;;;;5055072;28;20167;-71
2022/12/13 11:53:49;;;;;;;13.63;11.00;;;0.20;1.50;;;;;;5053671;28;20171;-71
2022/12/13 11:56:24;;;;;;;17.25;14.48;;;0.20;1.00;;;;;;5054339;28;20513;-71
2022/12/13 11:59:08;;;;;;;26.75;15.23;;;0.10;1.00;;;;;;5055081;28;20167;-72
2022/12/13 12:01:52;;;;;;;25.63;14.90;;;0.10;1.00;;;;;;5054959;28;20516;-71
2022/12/13 12:04:48;;;;;;;25.08;15.07;;;0.10;1.00;;;;;;5054090;28;20195;-75
2022/12/13 12:07:39;;;;;;;24.10;15.18;;;0.00;3.00;;;;;;5054656;28;20678;-72
2022/12/13 12:10:13;;;;;;;27.15;16.20;;;0.10;4.10;;;;;;5053949;28;20174;-71
2022/12/13 12:12:47;;;;;;;20.30;13.82;;;0.20;9.40;;;;;;5054665;28;20173;-73
2022/12/13 12:15:31;;;;;;;32.00;15.75;;;0.30;9.00;;;;;;5053818;28;20191;-72
2022/12/13 12:17:57;;;;;;;28.98;14.65;;;0.30;2.40;;;;;;5054661;28;20167;-71
2022/12/13 12:20:32;;;;;;;28.73;16.00;;;0.20;5.50;;;;;;5054775;28;20175;-71
2022/12/13 12:23:27;;;;;;;28.98;13.18;;;0.10;4.50;;;;;;5054542;28;20170;-72
2022/12/13 12:26:19;;;;;;;24.55;15.88;;;0.10;5.60;;;;;;5053569;28;20175;-71
2022/12/13 12:28:57;;;;;;;27.92;16.70;;;0.00;1.00;;;;;;5052722;28;20166;-70
2022/12/13 12:31:34;;;;;;;30.60;14.73;;;0.00;3.40;;;;;;5054225;28;20286;-71
2022/12/13 12:34:42;;;;;;;25.70;15.10;;;0.10;8.00;;;;;;5054260;28;20193;-71
2022/12/13 12:37:14;;;;;;;29.27;17.13;;;0.20;13.70;;;;;;5051366;28;20309;-71
2022/12/13 12:40:13;;;;;;;35.03;17.08;;;0.10;13.50;;;;;;5054310;28;20586;-71
2022/12/13 12:42:53;;;;;;;34.60;16.48;;;0.20;14.90;;;;;;5054256;28;20202;-71
2022/12/13 12:45:42;;;;;;;27.73;16.52;;;0.20;14.30;;;;;;5052137;28;20264;-71
2022/12/13 12:48:15;;;;;;;30.25;16.17;;;0.30;18.20;;;;;;5054000;28;20166;-71
2022/12/13 12:50:52;;;;;;;27.33;15.27;;;0.30;16.80;;;;;;5054085;28;20159;-71
2022/12/13 12:53:28;;;;;;;25.70;14.50;;;0.30;14.70;;;;;;5054079;28;20181;-71